sensor_id;sensor_type;location;lat;lon;timestamp;temperature;humidity
18454;DHT22;9356;52.202;20.950;2022-10-16T00:00:14;15.00;98.80
18454;DHT22;9356;52.202;20.950;2022-10-16T00:01:23;15.00;98.80
18454;DHT22;9356;52.202;20.950;2022-10-16T00:02:32;15.00;98.60
18454;DHT22;9356;52.202;20.950;2022-10-16T00:03:38;14.90;98.70
18454;DHT22;9356;52.202;20.950;2022-10-16T00:04:41;14.90;98.80
18454;DHT22;9356;52.202;20.950;2022-10-16T00:05:44;14.90;98.90
18454;DHT22;9356;52.202;20.950;2022-10-16T00:06:47;14.70;98.80
18454;DHT22;9356;52.202;20.950;2022-10-16T00:07:50;14.80;98.90
18454;DHT22;9356;52.202;20.950;2022-10-16T00:08:58;14.80;99.00
18454;DHT22;9356;52.202;20.950;2022-10-16T00:10:07;14.70;99.00
18454;DHT22;9356;52.202;20.950;2022-10-16T00:11:12;14.70;99.00
18454;DHT22;9356;52.202;20.950;2022-10-16T00:12:16;14.80;99.10
18454;DHT22;9356;52.202;20.950;2022-10-16T00:13:18;14.70;99.10
18454;DHT22;9356;52.202;20.950;2022-10-16T00:14:24;14.70;99.10
18454;DHT22;9356;52.202;20.950;2022-10-16T00:15:28;14.70;99.10
18454;DHT22;9356;52.202;20.950;2022-10-16T00:16:31;14.70;99.10
18454;DHT22;9356;52.202;20.950;2022-10-16T00:17:34;14.70;99.10
18454;DHT22;9356;52.202;20.950;2022-10-16T00:18:39;14.70;99.10
18454;DHT22;9356;52.202;20.950;2022-10-16T00:19:45;14.70;99.10
18454;DHT22;9356;52.202;20.950;2022-10-16T00:21:01;14.70;99.10
18454;DHT22;9356;52.202;20.950;2022-10-16T00:22:04;14.70;99.10
18454;DHT22;9356;52.202;20.950;2022-10-16T00:23:07;14.70;99.00
18454;DHT22;9356;52.202;20.950;2022-10-16T00:24:12;14.80;98.90
18454;DHT22;9356;52.202;20.950;2022-10-16T00:25:20;14.80;98.90
18454;DHT22;9356;52.202;20.950;2022-10-16T00:26:23;14.80;98.80
18454;DHT22;9356;52.202;20.950;2022-10-16T00:27:26;14.90;98.70
18454;DHT22;9356;52.202;20.950;2022-10-16T00:28:29;14.80;98.60
18454;DHT22;9356;52.202;20.950;2022-10-16T00:29:34;14.80;98.70
18454;DHT22;9356;52.202;20.950;2022-10-16T00:30:39;14.90;98.60
18454;DHT22;9356;52.202;20.950;2022-10-16T00:31:43;14.80;98.60
18454;DHT22;9356;52.202;20.950;2022-10-16T00:32:46;14.90;98.50
18454;DHT22;9356;52.202;20.950;2022-10-16T00:33:50;14.80;98.40
18454;DHT22;9356;52.202;20.950;2022-10-16T00:34:52;14.90;98.40
18454;DHT22;9356;52.202;20.950;2022-10-16T00:35:57;14.80;98.40
18454;DHT22;9356;52.202;20.950;2022-10-16T00:37:02;14.80;98.40
18454;DHT22;9356;52.202;20.950;2022-10-16T00:38:05;14.70;98.50
18454;DHT22;9356;52.202;20.950;2022-10-16T00:39:07;14.70;98.60
18454;DHT22;9356;52.202;20.950;2022-10-16T00:40:11;14.70;98.70
18454;DHT22;9356;52.202;20.950;2022-10-16T00:41:17;14.70;98.70
18454;DHT22;9356;52.202;20.950;2022-10-16T00:42:26;14.70;98.70
18454;DHT22;9356;52.202;20.950;2022-10-16T00:43:35;14.70;98.70
18454;DHT22;9356;52.202;20.950;2022-10-16T00:44:45;14.80;98.80
18454;DHT22;9356;52.202;20.950;2022-10-16T00:45:51;14.80;98.70
18454;DHT22;9356;52.202;20.950;2022-10-16T00:46:56;14.80;98.70
18454;DHT22;9356;52.202;20.950;2022-10-16T00:48:06;14.80;99.00
18454;DHT22;9356;52.202;20.950;2022-10-16T00:49:16;14.70;98.80
18454;DHT22;9356;52.202;20.950;2022-10-16T00:50:27;14.70;98.80
18454;DHT22;9356;52.202;20.950;2022-10-16T00:51:33;14.80;98.80
18454;DHT22;9356;52.202;20.950;2022-10-16T00:52:43;14.80;98.80
18454;DHT22;9356;52.202;20.950;2022-10-16T00:53:57;14.80;98.70
18454;DHT22;9356;52.202;20.950;2022-10-16T00:55:03;14.70;98.80
18454;DHT22;9356;52.202;20.950;2022-10-16T00:56:06;14.70;98.80
18454;DHT22;9356;52.202;20.950;2022-10-16T00:57:10;14.70;98.80
18454;DHT22;9356;52.202;20.950;2022-10-16T00:58:12;14.60;98.80
18454;DHT22;9356;52.202;20.950;2022-10-16T00:59:27;14.70;98.90
18454;DHT22;9356;52.202;20.950;2022-10-16T01:00:33;14.60;98.90
18454;DHT22;9356;52.202;20.950;2022-10-16T01:01:37;14.70;99.00
18454;DHT22;9356;52.202;20.950;2022-10-16T01:02:39;14.70;98.90
18454;DHT22;9356;52.202;20.950;2022-10-16T01:03:43;14.60;98.90
18454;DHT22;9356;52.202;20.950;2022-10-16T01:04:48;14.60;98.80
18454;DHT22;9356;52.202;20.950;2022-10-16T01:06:11;14.60;98.90
18454;DHT22;9356;52.202;20.950;2022-10-16T01:07:34;14.30;98.90
18454;DHT22;9356;52.202;20.950;2022-10-16T01:08:48;14.60;99.00
18454;DHT22;9356;52.202;20.950;2022-10-16T01:10:07;14.60;99.00
18454;DHT22;9356;52.202;20.950;2022-10-16T01:11:19;14.50;99.00
18454;DHT22;9356;52.202;20.950;2022-10-16T01:12:38;14.60;99.10
18454;DHT22;9356;52.202;20.950;2022-10-16T01:13:54;14.60;99.10
18454;DHT22;9356;52.202;20.950;2022-10-16T01:15:07;14.60;99.10
18454;DHT22;9356;52.202;20.950;2022-10-16T01:16:25;14.70;99.00
18454;DHT22;9356;52.202;20.950;2022-10-16T01:17:34;14.70;99.00
18454;DHT22;9356;52.202;20.950;2022-10-16T01:18:45;14.70;98.90
18454;DHT22;9356;52.202;20.950;2022-10-16T01:20:05;14.70;98.80
18454;DHT22;9356;52.202;20.950;2022-10-16T01:21:16;14.80;98.80
18454;DHT22;9356;52.202;20.950;2022-10-16T01:22:37;14.80;98.60
18454;DHT22;9356;52.202;20.950;2022-10-16T01:23:56;14.80;98.70
18454;DHT22;9356;52.202;20.950;2022-10-16T01:25:11;14.80;98.70
18454;DHT22;9356;52.202;20.950;2022-10-16T01:26:43;14.80;98.70
18454;DHT22;9356;52.202;20.950;2022-10-16T01:27:57;14.80;98.60
18454;DHT22;9356;52.202;20.950;2022-10-16T01:29:10;14.90;98.70
18454;DHT22;9356;52.202;20.950;2022-10-16T01:30:21;14.90;98.60
18454;DHT22;9356;52.202;20.950;2022-10-16T01:31:30;14.80;98.60
18454;DHT22;9356;52.202;20.950;2022-10-16T01:32:39;14.90;98.40
18454;DHT22;9356;52.202;20.950;2022-10-16T01:33:47;14.90;98.80
18454;DHT22;9356;52.202;20.950;2022-10-16T01:34:57;14.70;98.50
18454;DHT22;9356;52.202;20.950;2022-10-16T01:36:12;14.80;98.60
18454;DHT22;9356;52.202;20.950;2022-10-16T01:37:26;14.80;98.50
18454;DHT22;9356;52.202;20.950;2022-10-16T01:38:39;14.70;98.60
18454;DHT22;9356;52.202;20.950;2022-10-16T01:39:48;14.70;98.60
18454;DHT22;9356;52.202;20.950;2022-10-16T01:41:06;14.70;98.60
18454;DHT22;9356;52.202;20.950;2022-10-16T01:42:15;14.70;98.80
18454;DHT22;9356;52.202;20.950;2022-10-16T01:43:24;14.20;98.80
18454;DHT22;9356;52.202;20.950;2022-10-16T01:44:35;14.70;99.00
18454;DHT22;9356;52.202;20.950;2022-10-16T01:45:44;14.70;99.00
18454;DHT22;9356;52.202;20.950;2022-10-16T01:46:55;14.70;99.10
18454;DHT22;9356;52.202;20.950;2022-10-16T01:48:01;14.70;99.10
18454;DHT22;9356;52.202;20.950;2022-10-16T01:49:08;14.70;99.20
18454;DHT22;9356;52.202;20.950;2022-10-16T01:50:18;14.80;99.20
18454;DHT22;9356;52.202;20.950;2022-10-16T01:51:26;14.80;99.20
18454;DHT22;9356;52.202;20.950;2022-10-16T01:52:35;14.80;99.20
18454;DHT22;9356;52.202;20.950;2022-10-16T01:53:48;14.80;99.20
18454;DHT22;9356;52.202;20.950;2022-10-16T01:54:58;14.80;99.10
18454;DHT22;9356;52.202;20.950;2022-10-16T01:56:07;14.80;99.00
18454;DHT22;9356;52.202;20.950;2022-10-16T01:57:14;14.80;98.90
18454;DHT22;9356;52.202;20.950;2022-10-16T01:58:25;14.80;99.00
18454;DHT22;9356;52.202;20.950;2022-10-16T01:59:33;14.80;99.00
18454;DHT22;9356;52.202;20.950;2022-10-16T02:00:39;14.50;98.80
18454;DHT22;9356;52.202;20.950;2022-10-16T02:01:48;14.70;98.90
18454;DHT22;9356;52.202;20.950;2022-10-16T02:02:58;14.70;99.10
18454;DHT22;9356;52.202;20.950;2022-10-16T02:04:11;14.70;99.10
18454;DHT22;9356;52.202;20.950;2022-10-16T02:05:20;14.60;99.10
18454;DHT22;9356;52.202;20.950;2022-10-16T02:06:24;15.70;99.50
18454;DHT22;9356;52.202;20.950;2022-10-16T02:07:29;14.60;99.10
18454;DHT22;9356;52.202;20.950;2022-10-16T02:08:34;14.60;99.00
18454;DHT22;9356;52.202;20.950;2022-10-16T02:09:39;14.60;99.10
18454;DHT22;9356;52.202;20.950;2022-10-16T02:10:42;14.60;99.10
18454;DHT22;9356;52.202;20.950;2022-10-16T02:11:45;14.60;99.10
18454;DHT22;9356;52.202;20.950;2022-10-16T02:12:55;14.50;99.20
18454;DHT22;9356;52.202;20.950;2022-10-16T02:14:09;14.50;99.30
18454;DHT22;9356;52.202;20.950;2022-10-16T02:15:19;14.50;99.30
18454;DHT22;9356;52.202;20.950;2022-10-16T02:16:37;14.50;99.30
18454;DHT22;9356;52.202;20.950;2022-10-16T02:17:40;14.60;99.30
18454;DHT22;9356;52.202;20.950;2022-10-16T02:18:49;14.50;99.20
18454;DHT22;9356;52.202;20.950;2022-10-16T02:19:56;14.60;99.30
18454;DHT22;9356;52.202;20.950;2022-10-16T02:21:11;14.60;99.30
18454;DHT22;9356;52.202;20.950;2022-10-16T02:22:25;14.60;99.20
18454;DHT22;9356;52.202;20.950;2022-10-16T02:23:36;14.60;99.20
18454;DHT22;9356;52.202;20.950;2022-10-16T02:24:49;14.70;99.20
18454;DHT22;9356;52.202;20.950;2022-10-16T02:25:56;14.70;99.10
18454;DHT22;9356;52.202;20.950;2022-10-16T02:27:09;14.70;99.10
18454;DHT22;9356;52.202;20.950;2022-10-16T02:28:17;14.70;99.10
18454;DHT22;9356;52.202;20.950;2022-10-16T02:29:26;14.70;99.00
18454;DHT22;9356;52.202;20.950;2022-10-16T02:30:36;14.70;99.00
18454;DHT22;9356;52.202;20.950;2022-10-16T02:31:49;14.70;99.00
18454;DHT22;9356;52.202;20.950;2022-10-16T02:33:01;14.70;99.10
18454;DHT22;9356;52.202;20.950;2022-10-16T02:34:15;14.70;99.00
18454;DHT22;9356;52.202;20.950;2022-10-16T02:35:21;14.70;99.00
18454;DHT22;9356;52.202;20.950;2022-10-16T02:36:27;14.80;99.00
18454;DHT22;9356;52.202;20.950;2022-10-16T02:37:32;14.70;99.00
18454;DHT22;9356;52.202;20.950;2022-10-16T02:38:36;14.70;98.80
18454;DHT22;9356;52.202;20.950;2022-10-16T02:39:41;14.80;98.80
18454;DHT22;9356;52.202;20.950;2022-10-16T02:40:45;14.70;98.80
18454;DHT22;9356;52.202;20.950;2022-10-16T02:41:48;14.70;98.80
18454;DHT22;9356;52.202;20.950;2022-10-16T02:42:54;14.60;98.80
18454;DHT22;9356;52.202;20.950;2022-10-16T02:43:57;14.60;98.90
18454;DHT22;9356;52.202;20.950;2022-10-16T02:45:02;14.70;99.00
18454;DHT22;9356;52.202;20.950;2022-10-16T02:46:05;14.70;99.10
18454;DHT22;9356;52.202;20.950;2022-10-16T02:47:09;14.20;99.00
18454;DHT22;9356;52.202;20.950;2022-10-16T02:48:16;14.70;99.10
18454;DHT22;9356;52.202;20.950;2022-10-16T02:49:19;14.80;99.10
18454;DHT22;9356;52.202;20.950;2022-10-16T02:50:28;14.90;99.10
18454;DHT22;9356;52.202;20.950;2022-10-16T02:51:38;14.80;99.10
18454;DHT22;9356;52.202;20.950;2022-10-16T02:52:41;14.80;99.00
18454;DHT22;9356;52.202;20.950;2022-10-16T02:53:44;14.80;99.00
18454;DHT22;9356;52.202;20.950;2022-10-16T02:54:46;14.70;98.90
18454;DHT22;9356;52.202;20.950;2022-10-16T02:55:49;14.70;98.90
18454;DHT22;9356;52.202;20.950;2022-10-16T02:57:04;14.70;98.90
18454;DHT22;9356;52.202;20.950;2022-10-16T02:58:09;14.80;99.10
18454;DHT22;9356;52.202;20.950;2022-10-16T02:59:12;14.70;98.90
18454;DHT22;9356;52.202;20.950;2022-10-16T03:00:17;14.70;99.00
18454;DHT22;9356;52.202;20.950;2022-10-16T03:01:19;15.60;99.30
18454;DHT22;9356;52.202;20.950;2022-10-16T03:02:25;14.70;99.10
18454;DHT22;9356;52.202;20.950;2022-10-16T03:03:33;14.70;99.10
18454;DHT22;9356;52.202;20.950;2022-10-16T03:04:36;14.70;98.90
18454;DHT22;9356;52.202;20.950;2022-10-16T03:05:39;14.70;98.90
18454;DHT22;9356;52.202;20.950;2022-10-16T03:06:43;14.70;98.90
18454;DHT22;9356;52.202;20.950;2022-10-16T03:07:45;14.60;98.90
18454;DHT22;9356;52.202;20.950;2022-10-16T03:08:49;14.70;99.00
18454;DHT22;9356;52.202;20.950;2022-10-16T03:09:51;14.60;99.10
18454;DHT22;9356;52.202;20.950;2022-10-16T03:10:54;14.60;99.10
18454;DHT22;9356;52.202;20.950;2022-10-16T03:11:57;14.60;99.10
18454;DHT22;9356;52.202;20.950;2022-10-16T03:13:00;14.70;99.20
18454;DHT22;9356;52.202;20.950;2022-10-16T03:14:03;14.70;99.10
18454;DHT22;9356;52.202;20.950;2022-10-16T03:15:07;14.70;99.10
18454;DHT22;9356;52.202;20.950;2022-10-16T03:16:11;14.60;99.20
18454;DHT22;9356;52.202;20.950;2022-10-16T03:17:16;14.60;99.20
18454;DHT22;9356;52.202;20.950;2022-10-16T03:18:19;14.50;99.30
18454;DHT22;9356;52.202;20.950;2022-10-16T03:19:23;14.60;99.40
18454;DHT22;9356;52.202;20.950;2022-10-16T03:20:27;14.50;99.30
18454;DHT22;9356;52.202;20.950;2022-10-16T03:21:31;14.50;99.30
18454;DHT22;9356;52.202;20.950;2022-10-16T03:22:33;14.40;99.30
18454;DHT22;9356;52.202;20.950;2022-10-16T03:23:36;14.40;99.30
18454;DHT22;9356;52.202;20.950;2022-10-16T03:24:39;14.40;99.30
18454;DHT22;9356;52.202;20.950;2022-10-16T03:25:42;14.40;99.40
18454;DHT22;9356;52.202;20.950;2022-10-16T03:26:45;14.50;99.40
18454;DHT22;9356;52.202;20.950;2022-10-16T03:27:51;14.50;99.50
18454;DHT22;9356;52.202;20.950;2022-10-16T03:28:54;14.50;99.50
18454;DHT22;9356;52.202;20.950;2022-10-16T03:30:02;14.50;99.30
18454;DHT22;9356;52.202;20.950;2022-10-16T03:31:19;14.50;99.30
18454;DHT22;9356;52.202;20.950;2022-10-16T03:32:23;14.20;99.30
18454;DHT22;9356;52.202;20.950;2022-10-16T03:33:27;14.60;99.30
18454;DHT22;9356;52.202;20.950;2022-10-16T03:34:30;14.60;99.20
18454;DHT22;9356;52.202;20.950;2022-10-16T03:35:33;14.60;99.20
18454;DHT22;9356;52.202;20.950;2022-10-16T03:36:39;14.60;99.20
18454;DHT22;9356;52.202;20.950;2022-10-16T03:37:43;14.60;99.20
18454;DHT22;9356;52.202;20.950;2022-10-16T03:38:45;14.60;99.20
18454;DHT22;9356;52.202;20.950;2022-10-16T03:39:49;14.60;99.20
18454;DHT22;9356;52.202;20.950;2022-10-16T03:40:57;14.60;99.20
18454;DHT22;9356;52.202;20.950;2022-10-16T03:42:03;14.60;99.10
18454;DHT22;9356;52.202;20.950;2022-10-16T03:43:06;15.30;99.30
18454;DHT22;9356;52.202;20.950;2022-10-16T03:44:09;14.50;99.20
18454;DHT22;9356;52.202;20.950;2022-10-16T03:45:11;14.50;99.30
18454;DHT22;9356;52.202;20.950;2022-10-16T03:46:18;14.50;99.30
18454;DHT22;9356;52.202;20.950;2022-10-16T03:47:21;14.50;99.20
18454;DHT22;9356;52.202;20.950;2022-10-16T03:48:26;14.60;99.20
18454;DHT22;9356;52.202;20.950;2022-10-16T03:49:28;13.80;99.00
18454;DHT22;9356;52.202;20.950;2022-10-16T03:50:31;14.50;99.30
18454;DHT22;9356;52.202;20.950;2022-10-16T03:51:34;15.40;99.60
18454;DHT22;9356;52.202;20.950;2022-10-16T03:52:37;14.50;99.40
18454;DHT22;9356;52.202;20.950;2022-10-16T03:53:42;14.60;99.30
18454;DHT22;9356;52.202;20.950;2022-10-16T03:54:45;14.60;99.40
18454;DHT22;9356;52.202;20.950;2022-10-16T03:55:47;14.60;99.30
18454;DHT22;9356;52.202;20.950;2022-10-16T03:56:51;14.60;99.30
18454;DHT22;9356;52.202;20.950;2022-10-16T03:57:53;14.10;99.20
18454;DHT22;9356;52.202;20.950;2022-10-16T03:58:56;14.60;99.30
18454;DHT22;9356;52.202;20.950;2022-10-16T03:59:59;15.40;99.50
18454;DHT22;9356;52.202;20.950;2022-10-16T04:01:14;14.10;99.10
18454;DHT22;9356;52.202;20.950;2022-10-16T04:02:18;14.60;99.20
18454;DHT22;9356;52.202;20.950;2022-10-16T04:03:21;14.50;99.20
18454;DHT22;9356;52.202;20.950;2022-10-16T04:04:25;14.50;99.20
18454;DHT22;9356;52.202;20.950;2022-10-16T04:05:27;14.50;99.20
18454;DHT22;9356;52.202;20.950;2022-10-16T04:06:31;14.50;99.30
18454;DHT22;9356;52.202;20.950;2022-10-16T04:07:33;14.40;99.20
18454;DHT22;9356;52.202;20.950;2022-10-16T04:08:41;14.30;99.30
18454;DHT22;9356;52.202;20.950;2022-10-16T04:09:44;14.40;99.50
18454;DHT22;9356;52.202;20.950;2022-10-16T04:10:47;14.40;99.40
18454;DHT22;9356;52.202;20.950;2022-10-16T04:11:52;14.30;99.40
18454;DHT22;9356;52.202;20.950;2022-10-16T04:12:56;14.30;99.50
18454;DHT22;9356;52.202;20.950;2022-10-16T04:13:59;14.30;99.50
18454;DHT22;9356;52.202;20.950;2022-10-16T04:15:03;14.30;99.50
18454;DHT22;9356;52.202;20.950;2022-10-16T04:16:05;14.30;99.60
18454;DHT22;9356;52.202;20.950;2022-10-16T04:17:09;14.30;99.50
18454;DHT22;9356;52.202;20.950;2022-10-16T04:18:12;14.20;99.60
18454;DHT22;9356;52.202;20.950;2022-10-16T04:19:20;14.30;99.70
18454;DHT22;9356;52.202;20.950;2022-10-16T04:20:23;14.20;99.70
18454;DHT22;9356;52.202;20.950;2022-10-16T04:21:26;14.30;99.70
18454;DHT22;9356;52.202;20.950;2022-10-16T04:22:28;14.30;99.60
18454;DHT22;9356;52.202;20.950;2022-10-16T04:23:32;14.20;99.60
18454;DHT22;9356;52.202;20.950;2022-10-16T04:24:34;14.20;99.60
18454;DHT22;9356;52.202;20.950;2022-10-16T04:25:38;14.20;99.70
18454;DHT22;9356;52.202;20.950;2022-10-16T04:26:43;14.10;99.80
18454;DHT22;9356;52.202;20.950;2022-10-16T04:27:46;14.10;99.90
18454;DHT22;9356;52.202;20.950;2022-10-16T04:28:51;14.10;99.90
18454;DHT22;9356;52.202;20.950;2022-10-16T04:29:54;14.10;99.90
18454;DHT22;9356;52.202;20.950;2022-10-16T04:30:57;14.10;99.90
18454;DHT22;9356;52.202;20.950;2022-10-16T04:32:00;14.10;99.90
18454;DHT22;9356;52.202;20.950;2022-10-16T04:33:05;14.10;99.90
18454;DHT22;9356;52.202;20.950;2022-10-16T04:34:11;13.30;99.60
18454;DHT22;9356;52.202;20.950;2022-10-16T04:35:16;14.10;99.90
18454;DHT22;9356;52.202;20.950;2022-10-16T04:36:19;14.10;99.90
18454;DHT22;9356;52.202;20.950;2022-10-16T04:37:27;14.00;99.90
18454;DHT22;9356;52.202;20.950;2022-10-16T04:38:33;14.10;99.90
18454;DHT22;9356;52.202;20.950;2022-10-16T04:39:35;14.00;99.90
18454;DHT22;9356;52.202;20.950;2022-10-16T04:40:39;14.60;99.90
18454;DHT22;9356;52.202;20.950;2022-10-16T04:41:43;14.00;99.90
18454;DHT22;9356;52.202;20.950;2022-10-16T04:42:47;14.00;99.90
18454;DHT22;9356;52.202;20.950;2022-10-16T04:43:49;14.10;99.90
18454;DHT22;9356;52.202;20.950;2022-10-16T04:44:52;14.00;99.90
18454;DHT22;9356;52.202;20.950;2022-10-16T04:45:57;13.90;99.90
18454;DHT22;9356;52.202;20.950;2022-10-16T04:47:01;13.00;99.80
18454;DHT22;9356;52.202;20.950;2022-10-16T04:48:03;13.90;99.90
18454;DHT22;9356;52.202;20.950;2022-10-16T04:49:06;13.90;99.90
18454;DHT22;9356;52.202;20.950;2022-10-16T04:50:13;13.90;99.90
18454;DHT22;9356;52.202;20.950;2022-10-16T04:51:35;13.90;99.90
18454;DHT22;9356;52.202;20.950;2022-10-16T04:52:39;13.90;99.90
18454;DHT22;9356;52.202;20.950;2022-10-16T04:53:41;13.80;99.90
18454;DHT22;9356;52.202;20.950;2022-10-16T04:54:44;13.80;99.90
18454;DHT22;9356;52.202;20.950;2022-10-16T04:55:49;13.80;99.90
18454;DHT22;9356;52.202;20.950;2022-10-16T04:56:53;13.80;99.90
18454;DHT22;9356;52.202;20.950;2022-10-16T04:57:58;13.70;99.90
18454;DHT22;9356;52.202;20.950;2022-10-16T04:59:01;13.70;99.90
18454;DHT22;9356;52.202;20.950;2022-10-16T05:00:06;13.70;99.90
18454;DHT22;9356;52.202;20.950;2022-10-16T05:01:09;13.70;99.90
18454;DHT22;9356;52.202;20.950;2022-10-16T05:02:12;13.60;99.90
18454;DHT22;9356;52.202;20.950;2022-10-16T05:03:16;13.60;99.90
18454;DHT22;9356;52.202;20.950;2022-10-16T05:04:18;13.60;99.90
18454;DHT22;9356;52.202;20.950;2022-10-16T05:05:23;13.70;99.90
18454;DHT22;9356;52.202;20.950;2022-10-16T05:06:28;13.60;99.90
18454;DHT22;9356;52.202;20.950;2022-10-16T05:07:31;13.60;99.90
18454;DHT22;9356;52.202;20.950;2022-10-16T05:08:34;13.60;99.90
18454;DHT22;9356;52.202;20.950;2022-10-16T05:09:37;13.60;99.90
18454;DHT22;9356;52.202;20.950;2022-10-16T05:10:41;13.50;99.90
18454;DHT22;9356;52.202;20.950;2022-10-16T05:11:44;13.50;99.90
18454;DHT22;9356;52.202;20.950;2022-10-16T05:12:47;13.50;99.90
18454;DHT22;9356;52.202;20.950;2022-10-16T05:13:50;12.40;99.90
18454;DHT22;9356;52.202;20.950;2022-10-16T05:14:59;13.50;99.90
18454;DHT22;9356;52.202;20.950;2022-10-16T05:16:02;13.40;99.90
18454;DHT22;9356;52.202;20.950;2022-10-16T05:17:05;13.40;99.90
18454;DHT22;9356;52.202;20.950;2022-10-16T05:18:09;13.40;99.90
18454;DHT22;9356;52.202;20.950;2022-10-16T05:19:12;13.40;99.90
18454;DHT22;9356;52.202;20.950;2022-10-16T05:20:32;13.40;99.90
18454;DHT22;9356;52.202;20.950;2022-10-16T05:21:35;13.40;99.90
18454;DHT22;9356;52.202;20.950;2022-10-16T05:22:37;13.30;99.90
18454;DHT22;9356;52.202;20.950;2022-10-16T05:23:41;13.30;99.90
18454;DHT22;9356;52.202;20.950;2022-10-16T05:24:44;13.40;99.90
18454;DHT22;9356;52.202;20.950;2022-10-16T05:25:52;13.40;99.90
18454;DHT22;9356;52.202;20.950;2022-10-16T05:26:55;13.40;99.90
18454;DHT22;9356;52.202;20.950;2022-10-16T05:28:02;13.30;99.90
18454;DHT22;9356;52.202;20.950;2022-10-16T05:29:05;13.30;99.90
18454;DHT22;9356;52.202;20.950;2022-10-16T05:30:09;13.30;99.90
18454;DHT22;9356;52.202;20.950;2022-10-16T05:31:16;12.90;99.90
18454;DHT22;9356;52.202;20.950;2022-10-16T05:32:20;13.20;99.90
18454;DHT22;9356;52.202;20.950;2022-10-16T05:33:23;13.20;99.90
18454;DHT22;9356;52.202;20.950;2022-10-16T05:34:27;13.10;99.90
18454;DHT22;9356;52.202;20.950;2022-10-16T05:35:31;13.20;99.90
18454;DHT22;9356;52.202;20.950;2022-10-16T05:36:35;13.20;99.90
18454;DHT22;9356;52.202;20.950;2022-10-16T05:37:37;13.10;99.90
18454;DHT22;9356;52.202;20.950;2022-10-16T05:38:40;13.20;99.90
18454;DHT22;9356;52.202;20.950;2022-10-16T05:39:42;13.20;99.90
18454;DHT22;9356;52.202;20.950;2022-10-16T05:40:51;13.20;99.90
18454;DHT22;9356;52.202;20.950;2022-10-16T05:41:54;13.30;99.90
18454;DHT22;9356;52.202;20.950;2022-10-16T05:42:57;13.30;99.90
18454;DHT22;9356;52.202;20.950;2022-10-16T05:43:59;13.50;99.90
18454;DHT22;9356;52.202;20.950;2022-10-16T05:45:03;13.80;99.90
18454;DHT22;9356;52.202;20.950;2022-10-16T05:46:09;13.90;99.90
18454;DHT22;9356;52.202;20.950;2022-10-16T05:47:13;14.30;99.90
18454;DHT22;9356;52.202;20.950;2022-10-16T05:48:16;15.00;99.90
18454;DHT22;9356;52.202;20.950;2022-10-16T05:49:19;14.40;99.70
18454;DHT22;9356;52.202;20.950;2022-10-16T05:50:22;14.50;99.50
18454;DHT22;9356;52.202;20.950;2022-10-16T05:51:26;14.50;99.40
18454;DHT22;9356;52.202;20.950;2022-10-16T05:52:29;14.60;99.50
18454;DHT22;9356;52.202;20.950;2022-10-16T05:53:34;14.70;99.40
18454;DHT22;9356;52.202;20.950;2022-10-16T05:54:38;14.80;99.30
18454;DHT22;9356;52.202;20.950;2022-10-16T05:55:40;14.90;99.00
18454;DHT22;9356;52.202;20.950;2022-10-16T05:56:50;15.00;98.70
18454;DHT22;9356;52.202;20.950;2022-10-16T05:57:54;15.00;98.40
18454;DHT22;9356;52.202;20.950;2022-10-16T05:58:57;15.00;98.50
18454;DHT22;9356;52.202;20.950;2022-10-16T06:00:00;15.00;98.50
18454;DHT22;9356;52.202;20.950;2022-10-16T06:01:15;15.10;98.50
18454;DHT22;9356;52.202;20.950;2022-10-16T06:02:18;15.10;98.30
18454;DHT22;9356;52.202;20.950;2022-10-16T06:03:22;15.10;98.10
18454;DHT22;9356;52.202;20.950;2022-10-16T06:04:25;15.10;98.20
18454;DHT22;9356;52.202;20.950;2022-10-16T06:05:28;14.30;97.90
18454;DHT22;9356;52.202;20.950;2022-10-16T06:06:35;15.10;98.20
18454;DHT22;9356;52.202;20.950;2022-10-16T06:07:39;15.20;98.10
18454;DHT22;9356;52.202;20.950;2022-10-16T06:08:43;15.20;98.10
18454;DHT22;9356;52.202;20.950;2022-10-16T06:09:51;15.20;98.10
18454;DHT22;9356;52.202;20.950;2022-10-16T06:11:01;15.30;98.20
18454;DHT22;9356;52.202;20.950;2022-10-16T06:12:05;15.40;98.00
18454;DHT22;9356;52.202;20.950;2022-10-16T06:13:07;15.90;97.90
18454;DHT22;9356;52.202;20.950;2022-10-16T06:14:11;15.60;97.70
18454;DHT22;9356;52.202;20.950;2022-10-16T06:15:20;15.80;97.70
18454;DHT22;9356;52.202;20.950;2022-10-16T06:16:24;15.90;97.10
18454;DHT22;9356;52.202;20.950;2022-10-16T06:17:26;15.90;97.20
18454;DHT22;9356;52.202;20.950;2022-10-16T06:18:31;16.10;97.20
18454;DHT22;9356;52.202;20.950;2022-10-16T06:19:33;16.40;96.90
18454;DHT22;9356;52.202;20.950;2022-10-16T06:20:37;16.20;96.60
18454;DHT22;9356;52.202;20.950;2022-10-16T06:21:41;16.30;96.60
18454;DHT22;9356;52.202;20.950;2022-10-16T06:22:44;16.40;96.50
18454;DHT22;9356;52.202;20.950;2022-10-16T06:23:47;16.60;96.30
18454;DHT22;9356;52.202;20.950;2022-10-16T06:24:51;16.70;96.10
18454;DHT22;9356;52.202;20.950;2022-10-16T06:25:53;16.80;95.90
18454;DHT22;9356;52.202;20.950;2022-10-16T06:26:57;16.70;95.80
18454;DHT22;9356;52.202;20.950;2022-10-16T06:27:59;16.80;95.80
18454;DHT22;9356;52.202;20.950;2022-10-16T06:29:03;16.80;95.80
18454;DHT22;9356;52.202;20.950;2022-10-16T06:30:06;17.00;95.70
18454;DHT22;9356;52.202;20.950;2022-10-16T06:31:11;17.10;95.40
18454;DHT22;9356;52.202;20.950;2022-10-16T06:32:14;17.20;95.30
18454;DHT22;9356;52.202;20.950;2022-10-16T06:33:17;17.30;95.40
18454;DHT22;9356;52.202;20.950;2022-10-16T06:34:20;17.40;94.70
18454;DHT22;9356;52.202;20.950;2022-10-16T06:35:23;17.30;94.90
18454;DHT22;9356;52.202;20.950;2022-10-16T06:36:28;17.40;95.00
18454;DHT22;9356;52.202;20.950;2022-10-16T06:37:33;17.50;94.90
18454;DHT22;9356;52.202;20.950;2022-10-16T06:38:36;17.60;94.60
18454;DHT22;9356;52.202;20.950;2022-10-16T06:39:40;17.60;94.50
18454;DHT22;9356;52.202;20.950;2022-10-16T06:40:43;17.80;94.50
18454;DHT22;9356;52.202;20.950;2022-10-16T06:41:46;17.80;93.90
18454;DHT22;9356;52.202;20.950;2022-10-16T06:42:54;17.80;93.90
18454;DHT22;9356;52.202;20.950;2022-10-16T06:43:58;17.80;94.20
18454;DHT22;9356;52.202;20.950;2022-10-16T06:45:01;17.90;94.10
18454;DHT22;9356;52.202;20.950;2022-10-16T06:46:06;17.90;93.80
18454;DHT22;9356;52.202;20.950;2022-10-16T06:47:09;17.90;93.80
18454;DHT22;9356;52.202;20.950;2022-10-16T06:48:13;18.10;93.90
18454;DHT22;9356;52.202;20.950;2022-10-16T06:49:16;18.30;93.90
18454;DHT22;9356;52.202;20.950;2022-10-16T06:50:24;18.40;93.30
18454;DHT22;9356;52.202;20.950;2022-10-16T06:51:29;18.50;93.30
18454;DHT22;9356;52.202;20.950;2022-10-16T06:52:41;18.50;93.00
18454;DHT22;9356;52.202;20.950;2022-10-16T06:53:51;18.50;92.60
18454;DHT22;9356;52.202;20.950;2022-10-16T06:55:05;18.30;92.50
18454;DHT22;9356;52.202;20.950;2022-10-16T06:56:09;18.00;92.80